sensor_id;sensor_type;location;lat;lon;timestamp;pressure;altitude;pressure_sealevel;temperature;humidity
64717;BME280;51146;50.274;19.000;2022-08-14T00:01:44;98145.91;;;17.84;66.48
64717;BME280;51146;50.274;19.000;2022-08-14T00:04:20;98139.75;;;17.82;66.61
64717;BME280;51146;50.274;19.000;2022-08-14T00:07:07;98139.75;;;17.82;66.56
64717;BME280;51146;50.274;19.000;2022-08-14T00:09:34;98135.66;;;17.86;66.82
64717;BME280;51146;50.274;19.000;2022-08-14T00:12:05;98129.97;;;17.88;66.74
64717;BME280;51146;50.274;19.000;2022-08-14T00:14:51;98127.06;;;17.89;66.58
64717;BME280;51146;50.274;19.000;2022-08-14T00:17:21;98127.94;;;17.90;66.45
64717;BME280;51146;50.274;19.000;2022-08-14T00:19:47;98123.16;;;17.92;66.22
64717;BME280;51146;50.274;19.000;2022-08-14T00:22:17;98119.38;;;17.93;66.55
64717;BME280;51146;50.274;19.000;2022-08-14T00:25:08;98117.50;;;17.93;66.38
64717;BME280;51146;50.274;19.000;2022-08-14T00:27:36;98112.03;;;17.93;66.43
64717;BME280;51146;50.274;19.000;2022-08-14T00:30:10;98110.84;;;17.96;66.12
64717;BME280;51146;50.274;19.000;2022-08-14T00:32:43;98113.56;;;17.96;66.21
64717;BME280;51146;50.274;19.000;2022-08-14T00:35:27;98112.22;;;17.92;65.97
64717;BME280;51146;50.274;19.000;2022-08-14T00:38:14;98107.28;;;17.87;66.14
64717;BME280;51146;50.274;19.000;2022-08-14T00:40:43;98105.59;;;17.86;66.34
64717;BME280;51146;50.274;19.000;2022-08-14T00:43:12;98111.06;;;17.86;66.30
64717;BME280;51146;50.274;19.000;2022-08-14T00:45:40;98096.91;;;17.83;66.29
64717;BME280;51146;50.274;19.000;2022-08-14T00:48:08;98088.88;;;17.81;66.52
64717;BME280;51146;50.274;19.000;2022-08-14T00:50:36;98091.28;;;17.84;66.14
64717;BME280;51146;50.274;19.000;2022-08-14T00:53:04;98089.22;;;17.86;65.90
64717;BME280;51146;50.274;19.000;2022-08-14T00:55:36;98087.31;;;17.87;66.33
64717;BME280;51146;50.274;19.000;2022-08-14T00:58:08;98089.88;;;17.88;66.28
64717;BME280;51146;50.274;19.000;2022-08-14T01:01:07;98071.44;;;17.90;65.99
64717;BME280;51146;50.274;19.000;2022-08-14T01:03:37;98081.50;;;17.90;66.18
64717;BME280;51146;50.274;19.000;2022-08-14T01:06:10;98077.91;;;17.89;65.75
64717;BME280;51146;50.274;19.000;2022-08-14T01:08:39;98076.22;;;17.88;65.86
64717;BME280;51146;50.274;19.000;2022-08-14T01:11:26;98072.63;;;17.88;65.81
64717;BME280;51146;50.274;19.000;2022-08-14T01:14:02;98078.78;;;17.90;65.77
64717;BME280;51146;50.274;19.000;2022-08-14T01:16:49;98076.88;;;17.90;65.66
64717;BME280;51146;50.274;19.000;2022-08-14T01:19:18;98077.06;;;17.89;65.60
64717;BME280;51146;50.274;19.000;2022-08-14T01:22:07;98075.00;;;17.91;65.72
64717;BME280;51146;50.274;19.000;2022-08-14T01:24:38;98076.88;;;17.90;65.41
64717;BME280;51146;50.274;19.000;2022-08-14T01:27:15;98073.31;;;17.90;65.67
64717;BME280;51146;50.274;19.000;2022-08-14T01:29:49;98074.34;;;17.89;65.71
64717;BME280;51146;50.274;19.000;2022-08-14T01:32:30;98076.41;;;17.87;65.41
64717;BME280;51146;50.274;19.000;2022-08-14T01:35:08;98068.19;;;17.87;65.40
64717;BME280;51146;50.274;19.000;2022-08-14T01:37:56;98073.84;;;17.85;65.70
64717;BME280;51146;50.274;19.000;2022-08-14T01:40:24;98071.28;;;17.84;65.85
64717;BME280;51146;50.274;19.000;2022-08-14T01:43:02;98070.44;;;17.83;65.86
64717;BME280;51146;50.274;19.000;2022-08-14T01:45:29;98069.59;;;17.74;65.63
64717;BME280;51146;50.274;19.000;2022-08-14T01:48:05;98069.81;;;17.73;65.89
64717;BME280;51146;50.274;19.000;2022-08-14T01:50:41;98076.13;;;17.73;65.75
64717;BME280;51146;50.274;19.000;2022-08-14T01:53:09;98067.25;;;17.71;65.66
64717;BME280;51146;50.274;19.000;2022-08-14T01:55:38;98067.91;;;17.73;65.61
64717;BME280;51146;50.274;19.000;2022-08-14T01:58:06;98070.47;;;17.75;65.75
64717;BME280;51146;50.274;19.000;2022-08-14T02:00:48;98061.25;;;17.76;65.91
64717;BME280;51146;50.274;19.000;2022-08-14T02:03:26;98063.81;;;17.78;65.75
64717;BME280;51146;50.274;19.000;2022-08-14T02:06:00;98062.78;;;17.79;65.63
64717;BME280;51146;50.274;19.000;2022-08-14T02:08:48;98055.94;;;17.83;65.72
64717;BME280;51146;50.274;19.000;2022-08-14T02:11:21;98063.94;;;17.84;65.64
64717;BME280;51146;50.274;19.000;2022-08-14T02:13:50;98063.06;;;17.84;65.48
64717;BME280;51146;50.274;19.000;2022-08-14T02:16:22;98065.81;;;17.84;65.47
64717;BME280;51146;50.274;19.000;2022-08-14T02:18:56;98062.06;;;17.85;65.20
64717;BME280;51146;50.274;19.000;2022-08-14T02:21:25;98068.19;;;17.87;65.46
64717;BME280;51146;50.274;19.000;2022-08-14T02:23:54;98066.31;;;17.87;65.44
64717;BME280;51146;50.274;19.000;2022-08-14T02:26:29;98069.03;;;17.87;65.18
64717;BME280;51146;50.274;19.000;2022-08-14T02:29:06;98061.69;;;17.88;65.00
64717;BME280;51146;50.274;19.000;2022-08-14T02:31:38;98056.22;;;17.88;65.11
64717;BME280;51146;50.274;19.000;2022-08-14T02:34:15;98053.69;;;17.86;65.19
64717;BME280;51146;50.274;19.000;2022-08-14T02:36:50;98049.63;;;17.82;65.23
64717;BME280;51146;50.274;19.000;2022-08-14T02:39:37;98063.94;;;17.84;65.36
64717;BME280;51146;50.274;19.000;2022-08-14T02:42:07;98055.75;;;17.84;65.35
64717;BME280;51146;50.274;19.000;2022-08-14T02:44:42;98049.41;;;17.84;65.12
64717;BME280;51146;50.274;19.000;2022-08-14T02:47:15;98050.28;;;17.84;65.26
64717;BME280;51146;50.274;19.000;2022-08-14T02:49:46;98049.25;;;17.85;64.78
64717;BME280;51146;50.274;19.000;2022-08-14T02:52:20;98049.41;;;17.84;64.98
64717;BME280;51146;50.274;19.000;2022-08-14T02:55:07;98047.75;;;17.83;64.97
64717;BME280;51146;50.274;19.000;2022-08-14T02:57:34;98047.91;;;17.81;65.10
64717;BME280;51146;50.274;19.000;2022-08-14T03:00:07;98046.41;;;17.79;64.89
64717;BME280;51146;50.274;19.000;2022-08-14T03:02:35;98043.16;;;17.75;64.74
64717;BME280;51146;50.274;19.000;2022-08-14T03:05:22;98052.19;;;17.76;65.12
64717;BME280;51146;50.274;19.000;2022-08-14T03:07:49;98045.91;;;17.75;64.97
64717;BME280;51146;50.274;19.000;2022-08-14T03:10:18;98041.63;;;17.72;65.12
64717;BME280;51146;50.274;19.000;2022-08-14T03:12:59;98043.00;;;17.68;65.01
64717;BME280;51146;50.274;19.000;2022-08-14T03:15:31;98042.16;;;17.68;65.46
64717;BME280;51146;50.274;19.000;2022-08-14T03:18:24;98038.59;;;17.67;65.21
64717;BME280;51146;50.274;19.000;2022-08-14T03:21:04;98039.63;;;17.66;64.99
64717;BME280;51146;50.274;19.000;2022-08-14T03:23:33;98038.94;;;17.64;65.15
64717;BME280;51146;50.274;19.000;2022-08-14T03:26:05;98042.72;;;17.63;65.40
64717;BME280;51146;50.274;19.000;2022-08-14T03:28:46;98039.31;;;17.61;65.26
64717;BME280;51146;50.274;19.000;2022-08-14T03:31:13;98042.03;;;17.61;65.33
64717;BME280;51146;50.274;19.000;2022-08-14T03:33:41;98045.63;;;17.62;65.79
64717;BME280;51146;50.274;19.000;2022-08-14T03:36:11;98035.72;;;17.61;65.53
64717;BME280;51146;50.274;19.000;2022-08-14T03:39:03;98040.00;;;17.63;65.54
64717;BME280;51146;50.274;19.000;2022-08-14T03:41:44;98037.72;;;17.67;65.44
64717;BME280;51146;50.274;19.000;2022-08-14T03:44:10;98035.88;;;17.67;65.19
64717;BME280;51146;50.274;19.000;2022-08-14T03:46:57;98034.66;;;17.70;65.35
64717;BME280;51146;50.274;19.000;2022-08-14T03:59:18;98034.66;;;17.70;65.36
64717;BME280;51146;50.274;19.000;2022-08-14T04:04:30;98027.84;;;17.66;65.34
64717;BME280;51146;50.274;19.000;2022-08-14T04:06:58;98025.66;;;17.61;65.52
64717;BME280;51146;50.274;19.000;2022-08-14T04:09:27;98033.16;;;17.59;65.53
64717;BME280;51146;50.274;19.000;2022-08-14T04:11:54;98024.97;;;17.59;65.65
64717;BME280;51146;50.274;19.000;2022-08-14T04:14:25;98034.88;;;17.60;65.82
64717;BME280;51146;50.274;19.000;2022-08-14T04:16:51;98037.59;;;17.60;65.54
64717;BME280;51146;50.274;19.000;2022-08-14T04:19:18;98042.22;;;17.60;65.83
64717;BME280;51146;50.274;19.000;2022-08-14T04:21:58;98029.75;;;17.57;65.87
64717;BME280;51146;50.274;19.000;2022-08-14T04:24:31;98029.97;;;17.56;65.90
64717;BME280;51146;50.274;19.000;2022-08-14T04:27:06;98037.28;;;17.55;66.18
64717;BME280;51146;50.274;19.000;2022-08-14T04:29:39;98038.16;;;17.56;65.93
64717;BME280;51146;50.274;19.000;2022-08-14T04:32:10;98033.69;;;17.54;65.89
64717;BME280;51146;50.274;19.000;2022-08-14T04:34:57;98036.59;;;17.53;65.96
64717;BME280;51146;50.274;19.000;2022-08-14T04:37:26;98032.03;;;17.53;66.35
64717;BME280;51146;50.274;19.000;2022-08-14T04:40:19;98036.25;;;17.56;66.12
64717;BME280;51146;50.274;19.000;2022-08-14T04:43:06;98033.53;;;17.56;65.85
64717;BME280;51146;50.274;19.000;2022-08-14T04:46:07;98023.63;;;17.55;66.20
64717;BME280;51146;50.274;19.000;2022-08-14T04:48:36;98026.00;;;17.58;66.26
64717;BME280;51146;50.274;19.000;2022-08-14T04:51:18;98025.66;;;17.61;66.20
64717;BME280;51146;50.274;19.000;2022-08-14T04:53:47;98024.63;;;17.62;66.35
64717;BME280;51146;50.274;19.000;2022-08-14T04:56:17;98023.59;;;17.63;66.25
64717;BME280;51146;50.274;19.000;2022-08-14T04:59:03;98018.59;;;17.67;65.75
64717;BME280;51146;50.274;19.000;2022-08-14T05:01:40;98018.44;;;17.68;66.11
64717;BME280;51146;50.274;19.000;2022-08-14T05:04:15;98023.22;;;17.66;66.20
64717;BME280;51146;50.274;19.000;2022-08-14T05:09:14;98017.72;;;17.74;66.03
64717;BME280;51146;50.274;19.000;2022-08-14T05:11:42;98019.44;;;17.76;65.92
64717;BME280;51146;50.274;19.000;2022-08-14T05:14:11;98022.00;;;17.77;66.18
64717;BME280;51146;50.274;19.000;2022-08-14T05:16:58;98015.69;;;17.77;65.66
64717;BME280;51146;50.274;19.000;2022-08-14T05:19:27;98012.06;;;17.76;65.90
64717;BME280;51146;50.274;19.000;2022-08-14T05:21:55;98003.72;;;17.78;65.97
64717;BME280;51146;50.274;19.000;2022-08-14T05:24:46;98008.28;;;17.85;65.85
64717;BME280;51146;50.274;19.000;2022-08-14T05:27:16;98006.69;;;17.91;65.79
64717;BME280;51146;50.274;19.000;2022-08-14T05:29:48;98006.69;;;17.91;65.81
64717;BME280;51146;50.274;19.000;2022-08-14T05:32:15;98008.41;;;17.92;65.76
64717;BME280;51146;50.274;19.000;2022-08-14T05:34:43;98006.69;;;17.91;65.71
64717;BME280;51146;50.274;19.000;2022-08-14T05:37:11;98014.72;;;17.92;65.88
64717;BME280;51146;50.274;19.000;2022-08-14T05:39:40;98015.41;;;17.95;65.98
64717;BME280;51146;50.274;19.000;2022-08-14T05:42:07;98007.03;;;17.96;65.61
64717;BME280;51146;50.274;19.000;2022-08-14T05:44:47;98015.03;;;17.98;65.67
64717;BME280;51146;50.274;19.000;2022-08-14T05:47:14;98016.72;;;17.99;65.81
64717;BME280;51146;50.274;19.000;2022-08-14T05:49:43;98016.56;;;18.00;65.61
64717;BME280;51146;50.274;19.000;2022-08-14T05:52:11;98020.13;;;18.01;65.64
64717;BME280;51146;50.274;19.000;2022-08-14T05:54:43;98014.16;;;17.97;65.66
64717;BME280;51146;50.274;19.000;2022-08-14T05:57:10;98017.94;;;17.96;65.67
64717;BME280;51146;50.274;19.000;2022-08-14T05:59:37;98013.16;;;17.98;65.77
64717;BME280;51146;50.274;19.000;2022-08-14T06:02:08;98014.50;;;18.02;65.61
64717;BME280;51146;50.274;19.000;2022-08-14T06:04:37;98004.53;;;18.09;65.72
64717;BME280;51146;50.274;19.000;2022-08-14T06:07:05;98010.50;;;18.13;65.35
64717;BME280;51146;50.274;19.000;2022-08-14T06:09:32;98005.31;;;18.18;65.57
64717;BME280;51146;50.274;19.000;2022-08-14T06:12:09;98008.53;;;18.22;65.57
64717;BME280;51146;50.274;19.000;2022-08-14T06:14:37;98002.75;;;18.25;65.41
64717;BME280;51146;50.274;19.000;2022-08-14T06:17:05;98000.69;;;18.27;65.43
64717;BME280;51146;50.274;19.000;2022-08-14T06:19:32;98002.00;;;18.31;65.46
64717;BME280;51146;50.274;19.000;2022-08-14T06:21:59;98003.34;;;18.35;65.65
64717;BME280;51146;50.274;19.000;2022-08-14T06:24:28;98001.41;;;18.44;65.43
64717;BME280;51146;50.274;19.000;2022-08-14T06:27:00;97997.34;;;18.55;64.94
64717;BME280;51146;50.274;19.000;2022-08-14T06:29:32;98005.28;;;18.64;64.85
64717;BME280;51146;50.274;19.000;2022-08-14T06:32:01;98000.97;;;18.70;64.79
64717;BME280;51146;50.274;19.000;2022-08-14T06:34:48;98001.94;;;18.77;64.48
64717;BME280;51146;50.274;19.000;2022-08-14T06:37:46;98004.22;;;18.88;64.33
64717;BME280;51146;50.274;19.000;2022-08-14T06:40:17;98002.91;;;18.99;63.86
64717;BME280;51146;50.274;19.000;2022-08-14T06:42:59;98001.78;;;19.08;63.75
64717;BME280;51146;50.274;19.000;2022-08-14T06:45:30;98007.56;;;19.14;63.62
64717;BME280;51146;50.274;19.000;2022-08-14T06:47:57;98005.47;;;19.16;63.65
64717;BME280;51146;50.274;19.000;2022-08-14T06:50:24;98004.53;;;19.23;63.74
64717;BME280;51146;50.274;19.000;2022-08-14T06:52:56;97996.13;;;19.40;63.30
64717;BME280;51146;50.274;19.000;2022-08-14T06:55:23;98000.25;;;19.51;63.04
64717;BME280;51146;50.274;19.000;2022-08-14T06:57:53;98000.53;;;19.56;62.96
64717;BME280;51146;50.274;19.000;2022-08-14T07:00:22;97995.41;;;19.67;62.67
64717;BME280;51146;50.274;19.000;2022-08-14T07:02:56;98001.09;;;19.81;62.52
64717;BME280;51146;50.274;19.000;2022-08-14T07:05:41;97996.13;;;19.91;62.18
64717;BME280;51146;50.274;19.000;2022-08-14T07:08:29;98003.47;;;20.05;61.81
64717;BME280;51146;50.274;19.000;2022-08-14T07:11:01;97992.00;;;20.17;61.49
64717;BME280;51146;50.274;19.000;2022-08-14T07:13:30;97995.66;;;20.24;61.25
64717;BME280;51146;50.274;19.000;2022-08-14T07:15:58;97992.78;;;20.32;60.78
64717;BME280;51146;50.274;19.000;2022-08-14T07:18:32;98003.69;;;20.47;61.10
64717;BME280;51146;50.274;19.000;2022-08-14T07:21:01;97997.66;;;20.58;60.29
64717;BME280;51146;50.274;19.000;2022-08-14T07:23:28;97998.75;;;20.64;60.08
64717;BME280;51146;50.274;19.000;2022-08-14T07:25:57;97994.34;;;20.63;60.03
64717;BME280;51146;50.274;19.000;2022-08-14T07:28:26;97996.44;;;20.61;59.86
64717;BME280;51146;50.274;19.000;2022-08-14T07:30:55;97986.69;;;20.58;59.72
64717;BME280;51146;50.274;19.000;2022-08-14T07:36:05;97990.22;;;20.52;59.69
64717;BME280;51146;50.274;19.000;2022-08-14T07:38:52;97989.75;;;20.49;59.07
64717;BME280;51146;50.274;19.000;2022-08-14T07:41:18;97997.31;;;20.46;59.40
64717;BME280;51146;50.274;19.000;2022-08-14T07:43:45;97998.13;;;20.40;59.42
64717;BME280;51146;50.274;19.000;2022-08-14T07:46:22;97991.84;;;20.25;59.86
64717;BME280;51146;50.274;19.000;2022-08-14T07:48:54;97992.19;;;20.15;59.92
64717;BME280;51146;50.274;19.000;2022-08-14T07:51:23;97992.13;;;20.09;60.25
64717;BME280;51146;50.274;19.000;2022-08-14T07:53:51;97996.50;;;20.03;60.53
64717;BME280;51146;50.274;19.000;2022-08-14T07:56:23;98000.28;;;20.02;60.26
64717;BME280;51146;50.274;19.000;2022-08-14T07:59:10;97996.88;;;20.00;60.46
64717;BME280;51146;50.274;19.000;2022-08-14T08:01:38;98000.28;;;20.02;60.23
64717;BME280;51146;50.274;19.000;2022-08-14T08:04:21;98001.19;;;20.09;60.44
64717;BME280;51146;50.274;19.000;2022-08-14T08:06:50;97992.56;;;20.12;60.31
64717;BME280;51146;50.274;19.000;2022-08-14T08:09:23;97994.28;;;20.13;60.07
64717;BME280;51146;50.274;19.000;2022-08-14T08:12:00;97991.91;;;20.10;60.37
64717;BME280;51146;50.274;19.000;2022-08-14T08:14:35;97992.31;;;20.07;60.38
64717;BME280;51146;50.274;19.000;2022-08-14T08:17:22;97990.41;;;20.07;60.60
64717;BME280;51146;50.274;19.000;2022-08-14T08:19:50;97990.03;;;20.11;60.75
64717;BME280;51146;50.274;19.000;2022-08-14T08:22:17;97987.94;;;20.13;60.22
64717;BME280;51146;50.274;19.000;2022-08-14T08:24:47;97985.78;;;20.08;60.31
64717;BME280;51146;50.274;19.000;2022-08-14T08:27:17;97982.78;;;20.03;60.31
64717;BME280;51146;50.274;19.000;2022-08-14T08:29:49;97991.78;;;19.97;60.69
64717;BME280;51146;50.274;19.000;2022-08-14T08:32:16;97990.28;;;19.94;60.85
64717;BME280;51146;50.274;19.000;2022-08-14T08:34:50;97983.09;;;19.93;61.02
64717;BME280;51146;50.274;19.000;2022-08-14T08:37:19;97986.03;;;19.92;61.09
64717;BME280;51146;50.274;19.000;2022-08-14T08:39:47;97976.31;;;19.89;61.37
64717;BME280;51146;50.274;19.000;2022-08-14T08:42:30;97983.69;;;19.88;61.20
64717;BME280;51146;50.274;19.000;2022-08-14T08:45:14;97980.16;;;19.95;61.15
64717;BME280;51146;50.274;19.000;2022-08-14T08:47:43;97978.16;;;20.03;61.06
64717;BME280;51146;50.274;19.000;2022-08-14T08:50:27;97979.31;;;20.16;60.66
64717;BME280;51146;50.274;19.000;2022-08-14T08:53:00;97976.47;;;20.24;61.25
64717;BME280;51146;50.274;19.000;2022-08-14T08:58:09;97972.66;;;20.25;60.71
64717;BME280;51146;50.274;19.000;2022-08-14T09:00:46;97973.72;;;20.24;60.65
64717;BME280;51146;50.274;19.000;2022-08-14T09:03:16;97977.31;;;20.24;60.40
64717;BME280;51146;50.274;19.000;2022-08-14T09:05:58;97959.22;;;20.30;60.62
64717;BME280;51146;50.274;19.000;2022-08-14T09:08:29;97970.03;;;20.38;60.36
64717;BME280;51146;50.274;19.000;2022-08-14T09:11:04;97974.09;;;20.42;60.25
64717;BME280;51146;50.274;19.000;2022-08-14T09:13:49;97964.41;;;20.46;60.48
64717;BME280;51146;50.274;19.000;2022-08-14T09:16:23;97967.59;;;20.50;60.20
64717;BME280;51146;50.274;19.000;2022-08-14T09:18:52;97959.88;;;20.54;60.67
64717;BME280;51146;50.274;19.000;2022-08-14T09:21:21;97963.91;;;20.58;60.32
64717;BME280;51146;50.274;19.000;2022-08-14T09:23:52;97961.22;;;20.64;60.35
64717;BME280;51146;50.274;19.000;2022-08-14T09:26:42;97965.25;;;20.69;60.58
64717;BME280;51146;50.274;19.000;2022-08-14T09:29:15;97962.75;;;20.74;59.96
64717;BME280;51146;50.274;19.000;2022-08-14T09:31:43;97963.06;;;20.85;60.52
64717;BME280;51146;50.274;19.000;2022-08-14T09:37:06;97953.72;;;21.15;60.30
64717;BME280;51146;50.274;19.000;2022-08-14T09:42:42;97952.72;;;21.71;59.08
64717;BME280;51146;50.274;19.000;2022-08-14T09:45:21;97943.75;;;21.97;58.05
64717;BME280;51146;50.274;19.000;2022-08-14T09:47:56;97946.28;;;22.12;57.41
64717;BME280;51146;50.274;19.000;2022-08-14T09:50:24;97942.28;;;22.21;56.58
64717;BME280;51146;50.274;19.000;2022-08-14T09:53:04;97946.06;;;22.13;56.58
64717;BME280;51146;50.274;19.000;2022-08-14T09:55:44;97939.94;;;22.11;56.79
64717;BME280;51146;50.274;19.000;2022-08-14T09:58:17;97937.00;;;22.13;56.48
64717;BME280;51146;50.274;19.000;2022-08-14T10:00:54;97945.66;;;22.10;55.93
64717;BME280;51146;50.274;19.000;2022-08-14T10:03:31;97945.22;;;21.99;56.62
64717;BME280;51146;50.274;19.000;2022-08-14T10:06:20;97946.25;;;21.92;56.17
64717;BME280;51146;50.274;19.000;2022-08-14T10:11:32;97948.94;;;21.78;56.56
64717;BME280;51146;50.274;19.000;2022-08-14T10:17:00;97947.41;;;21.62;56.28
64717;BME280;51146;50.274;19.000;2022-08-14T10:19:30;97947.63;;;21.61;56.54
64717;BME280;51146;50.274;19.000;2022-08-14T10:22:05;97946.75;;;21.54;56.93
64717;BME280;51146;50.274;19.000;2022-08-14T10:24:56;97938.53;;;21.60;57.13
64717;BME280;51146;50.274;19.000;2022-08-14T10:27:26;97944.28;;;21.72;56.83
64717;BME280;51146;50.274;19.000;2022-08-14T10:29:56;97947.47;;;21.76;56.24
64717;BME280;51146;50.274;19.000;2022-08-14T10:32:27;97951.06;;;21.83;56.64
64717;BME280;51146;50.274;19.000;2022-08-14T10:35:09;97949.66;;;21.94;56.42
64717;BME280;51146;50.274;19.000;2022-08-14T10:37:47;97950.75;;;22.13;55.61
64717;BME280;51146;50.274;19.000;2022-08-14T10:40:28;97940.63;;;22.33;55.27
64717;BME280;51146;50.274;19.000;2022-08-14T10:43:20;97944.44;;;22.66;55.10
64717;BME280;51146;50.274;19.000;2022-08-14T10:45:57;97950.69;;;23.13;54.73
64717;BME280;51146;50.274;19.000;2022-08-14T10:49:00;97942.25;;;23.66;52.81
64717;BME280;51146;50.274;19.000;2022-08-14T10:51:32;97942.09;;;24.00;52.40
64717;BME280;51146;50.274;19.000;2022-08-14T10:54:08;97940.47;;;24.24;50.30
64717;BME280;51146;50.274;19.000;2022-08-14T10:57:26;97944.84;;;24.31;49.08
64717;BME280;51146;50.274;19.000;2022-08-14T10:59:56;97944.97;;;24.43;49.06
64717;BME280;51146;50.274;19.000;2022-08-14T11:05:16;97941.75;;;24.53;48.35
64717;BME280;51146;50.274;19.000;2022-08-14T11:07:54;97943.06;;;24.44;48.04
64717;BME280;51146;50.274;19.000;2022-08-14T11:10:43;97948.75;;;24.49;48.55
64717;BME280;51146;50.274;19.000;2022-08-14T11:13:22;97939.00;;;24.46;47.91
64717;BME280;51146;50.274;19.000;2022-08-14T11:15:50;97941.91;;;24.58;48.08
64717;BME280;51146;50.274;19.000;2022-08-14T11:18:18;97937.06;;;24.97;47.72
64717;BME280;51146;50.274;19.000;2022-08-14T11:21:01;97935.66;;;25.50;47.67
64717;BME280;51146;50.274;19.000;2022-08-14T11:23:32;97950.09;;;26.01;45.67
64717;BME280;51146;50.274;19.000;2022-08-14T11:26:04;97934.47;;;26.37;44.57
64717;BME280;51146;50.274;19.000;2022-08-14T11:28:35;97928.88;;;26.91;44.26
64717;BME280;51146;50.274;19.000;2022-08-14T11:31:17;97931.44;;;27.44;42.94
64717;BME280;51146;50.274;19.000;2022-08-14T11:33:53;97938.16;;;28.01;41.75
64717;BME280;51146;50.274;19.000;2022-08-14T11:36:26;97928.25;;;28.51;40.64
64717;BME280;51146;50.274;19.000;2022-08-14T11:39:21;97928.81;;;29.04;39.75
64717;BME280;51146;50.274;19.000;2022-08-14T11:41:59;97936.66;;;29.07;38.24
64717;BME280;51146;50.274;19.000;2022-08-14T11:44:49;97941.91;;;28.69;38.71
64717;BME280;51146;50.274;19.000;2022-08-14T11:47:25;97931.56;;;28.81;39.54
64717;BME280;51146;50.274;19.000;2022-08-14T11:50:10;97929.31;;;29.17;38.34
64717;BME280;51146;50.274;19.000;2022-08-14T11:52:38;97924.63;;;29.62;36.88
64717;BME280;51146;50.274;19.000;2022-08-14T11:55:10;97926.50;;;29.78;35.97
64717;BME280;51146;50.274;19.000;2022-08-14T11:57:41;97919.31;;;29.83;36.24
64717;BME280;51146;50.274;19.000;2022-08-14T12:00:25;97923.72;;;30.65;35.07
64717;BME280;51146;50.274;19.000;2022-08-14T12:02:59;97918.88;;;31.20;34.15
64717;BME280;51146;50.274;19.000;2022-08-14T12:05:35;97915.13;;;31.09;33.68
64717;BME280;51146;50.274;19.000;2022-08-14T12:08:05;97919.63;;;30.68;34.00
64717;BME280;51146;50.274;19.000;2022-08-14T12:10:42;97922.88;;;30.05;33.97
64717;BME280;51146;50.274;19.000;2022-08-14T12:15:37;97913.28;;;28.86;35.57
64717;BME280;51146;50.274;19.000;2022-08-14T12:18:10;97914.00;;;28.81;36.22
64717;BME280;51146;50.274;19.000;2022-08-14T12:20:45;97914.59;;;28.83;35.96
64717;BME280;51146;50.274;19.000;2022-08-14T12:23:24;97921.44;;;28.75;35.56
64717;BME280;51146;50.274;19.000;2022-08-14T12:26:07;97922.28;;;28.59;36.52
64717;BME280;51146;50.274;19.000;2022-08-14T12:29:10;97910.56;;;28.40;36.59
64717;BME280;51146;50.274;19.000;2022-08-14T12:31:39;97904.75;;;28.24;36.85
64717;BME280;51146;50.274;19.000;2022-08-14T12:34:13;97909.81;;;28.61;37.15
64717;BME280;51146;50.274;19.000;2022-08-14T12:36:46;97923.13;;;28.76;36.52
64717;BME280;51146;50.274;19.000;2022-08-14T12:39:22;97920.81;;;29.07;35.81
64717;BME280;51146;50.274;19.000;2022-08-14T12:41:54;97917.03;;;28.96;35.69
64717;BME280;51146;50.274;19.000;2022-08-14T12:44:36;97922.78;;;28.73;35.80
64717;BME280;51146;50.274;19.000;2022-08-14T12:47:09;97914.16;;;29.08;35.92
64717;BME280;51146;50.274;19.000;2022-08-14T12:49:50;97911.94;;;29.71;34.64
64717;BME280;51146;50.274;19.000;2022-08-14T12:52:37;97906.34;;;30.15;34.11
64717;BME280;51146;50.274;19.000;2022-08-14T12:55:28;97900.84;;;30.95;33.83
64717;BME280;51146;50.274;19.000;2022-08-14T12:58:15;97904.72;;;31.37;31.90
64717;BME280;51146;50.274;19.000;2022-08-14T13:01:03;97902.53;;;32.23;31.00
64717;BME280;51146;50.274;19.000;2022-08-14T13:03:45;97890.78;;;32.57;29.65
64717;BME280;51146;50.274;19.000;2022-08-14T13:06:18;97891.84;;;32.04;30.46
64717;BME280;51146;50.274;19.000;2022-08-14T13:08:45;97894.41;;;31.32;31.02
64717;BME280;51146;50.274;19.000;2022-08-14T13:11:19;97883.13;;;30.69;31.33
64717;BME280;51146;50.274;19.000;2022-08-14T13:13:54;97875.41;;;30.49;32.38
64717;BME280;51146;50.274;19.000;2022-08-14T13:16:24;97876.22;;;30.77;32.36
64717;BME280;51146;50.274;19.000;2022-08-14T13:19:13;97872.13;;;31.43;31.80
64717;BME280;51146;50.274;19.000;2022-08-14T13:21:43;97873.19;;;32.25;30.37
64717;BME280;51146;50.274;19.000;2022-08-14T13:24:33;97868.13;;;32.89;29.94
64717;BME280;51146;50.274;19.000;2022-08-14T13:27:00;97863.34;;;32.95;29.08
64717;BME280;51146;50.274;19.000;2022-08-14T13:29:37;97858.56;;;33.11;29.12
64717;BME280;51146;50.274;19.000;2022-08-14T13:32:06;97856.44;;;33.62;28.46
64717;BME280;51146;50.274;19.000;2022-08-14T13:34:37;97839.91;;;34.05;27.65
64717;BME280;51146;50.274;19.000;2022-08-14T13:37:04;97850.34;;;34.39;27.63
64717;BME280;51146;50.274;19.000;2022-08-14T13:39:33;97846.66;;;35.02;26.90
64717;BME280;51146;50.274;19.000;2022-08-14T13:42:04;97846.66;;;35.70;26.11
64717;BME280;51146;50.274;19.000;2022-08-14T13:44:40;97846.13;;;36.25;24.91
64717;BME280;51146;50.274;19.000;2022-08-14T13:47:08;97834.81;;;36.63;24.61
64717;BME280;51146;50.274;19.000;2022-08-14T13:49:35;97832.88;;;36.77;24.49
64717;BME280;51146;50.274;19.000;2022-08-14T13:52:10;97825.06;;;36.74;24.05
64717;BME280;51146;50.274;19.000;2022-08-14T13:55:02;97819.00;;;36.67;23.71
64717;BME280;51146;50.274;19.000;2022-08-14T13:57:31;97818.09;;;36.19;24.26
64717;BME280;51146;50.274;19.000;2022-08-14T14:00:01;97817.53;;;36.04;24.38
64717;BME280;51146;50.274;19.000;2022-08-14T14:02:33;97799.03;;;36.03;24.59
64717;BME280;51146;50.274;19.000;2022-08-14T14:05:03;97803.09;;;35.53;24.51
64717;BME280;51146;50.274;19.000;2022-08-14T14:07:32;97802.72;;;35.17;25.34